Terminal Aerodrome Forecast
Issued by NWS

Current Version | Previous Version | Graphics & Text | Print | Product List | Glossary On
Versions: 1 2 3 4 5 6 7 8 9 10 11 12 13 14 15 16 17 18
873
FTUS41 KILN 260539
TAFLUK
TAF
KLUK 260539Z 2606/2706 00000KT 5SM BR SKC
     FM260800 00000KT 1SM BR SKC
      TEMPO 2608/2611 1/4SM FG BKN002
     FM261200 00000KT 5SM BR FEW250
     FM261300 14003KT P6SM FEW250
     FM261900 18005KT P6SM FEW250
     FM270300 00000KT P6SM SCT050 BKN250=

USA.gov is the U.S. government's official web portal to all federal, state and local government web resources and services.